sensor_id;sensor_type;location;lat;lon;timestamp;P1;durP1;ratioP1;P2;durP2;ratioP2
8803;SDS011;4438;50.890;4.726;2022-07-17T00:00:17;2.93;;;2.30;;
8803;SDS011;4438;50.890;4.726;2022-07-17T00:02:43;3.17;;;2.53;;
8803;SDS011;4438;50.890;4.726;2022-07-17T00:05:09;2.60;;;2.40;;
8803;SDS011;4438;50.890;4.726;2022-07-17T00:07:35;3.10;;;2.17;;
8803;SDS011;4438;50.890;4.726;2022-07-17T00:10:02;3.27;;;2.40;;
8803;SDS011;4438;50.890;4.726;2022-07-17T00:12:28;3.67;;;2.60;;
8803;SDS011;4438;50.890;4.726;2022-07-17T00:14:54;3.80;;;2.27;;
8803;SDS011;4438;50.890;4.726;2022-07-17T00:17:20;4.00;;;2.70;;
8803;SDS011;4438;50.890;4.726;2022-07-17T00:19:46;2.10;;;1.90;;
8803;SDS011;4438;50.890;4.726;2022-07-17T00:22:12;3.53;;;2.40;;
8803;SDS011;4438;50.890;4.726;2022-07-17T00:24:39;2.77;;;2.20;;
8803;SDS011;4438;50.890;4.726;2022-07-17T00:27:05;3.23;;;2.30;;
8803;SDS011;4438;50.890;4.726;2022-07-17T00:29:31;2.57;;;2.23;;
8803;SDS011;4438;50.890;4.726;2022-07-17T00:31:57;2.87;;;1.97;;
8803;SDS011;4438;50.890;4.726;2022-07-17T00:34:23;3.07;;;2.33;;
8803;SDS011;4438;50.890;4.726;2022-07-17T00:36:49;2.30;;;1.97;;
8803;SDS011;4438;50.890;4.726;2022-07-17T00:39:15;2.93;;;2.30;;
8803;SDS011;4438;50.890;4.726;2022-07-17T00:41:45;2.53;;;2.27;;
8803;SDS011;4438;50.890;4.726;2022-07-17T00:44:11;3.30;;;2.23;;
8803;SDS011;4438;50.890;4.726;2022-07-17T00:46:37;2.50;;;2.30;;
8803;SDS011;4438;50.890;4.726;2022-07-17T00:49:04;3.77;;;2.20;;
8803;SDS011;4438;50.890;4.726;2022-07-17T00:51:30;4.10;;;2.27;;
8803;SDS011;4438;50.890;4.726;2022-07-17T00:53:57;3.27;;;2.40;;
8803;SDS011;4438;50.890;4.726;2022-07-17T00:56:24;2.93;;;2.23;;
8803;SDS011;4438;50.890;4.726;2022-07-17T00:58:50;2.60;;;2.20;;
8803;SDS011;4438;50.890;4.726;2022-07-17T01:01:17;2.33;;;2.03;;
8803;SDS011;4438;50.890;4.726;2022-07-17T01:03:43;2.77;;;2.13;;
8803;SDS011;4438;50.890;4.726;2022-07-17T01:06:09;2.80;;;2.30;;
8803;SDS011;4438;50.890;4.726;2022-07-17T01:08:36;2.30;;;2.10;;
8803;SDS011;4438;50.890;4.726;2022-07-17T01:11:03;2.70;;;2.50;;
8803;SDS011;4438;50.890;4.726;2022-07-17T01:13:29;2.50;;;2.30;;
8803;SDS011;4438;50.890;4.726;2022-07-17T01:15:56;4.20;;;2.23;;
8803;SDS011;4438;50.890;4.726;2022-07-17T01:18:22;2.43;;;2.00;;
8803;SDS011;4438;50.890;4.726;2022-07-17T01:20:49;2.57;;;2.23;;
8803;SDS011;4438;50.890;4.726;2022-07-17T01:23:16;3.37;;;2.30;;
8803;SDS011;4438;50.890;4.726;2022-07-17T01:25:42;4.03;;;2.70;;
8803;SDS011;4438;50.890;4.726;2022-07-17T01:28:09;3.20;;;2.50;;
8803;SDS011;4438;50.890;4.726;2022-07-17T01:30:35;3.50;;;2.23;;
8803;SDS011;4438;50.890;4.726;2022-07-17T01:33:01;4.53;;;2.57;;
8803;SDS011;4438;50.890;4.726;2022-07-17T01:35:28;2.20;;;2.10;;
8803;SDS011;4438;50.890;4.726;2022-07-17T01:37:54;4.03;;;2.53;;
8803;SDS011;4438;50.890;4.726;2022-07-17T01:40:20;3.50;;;2.30;;
8803;SDS011;4438;50.890;4.726;2022-07-17T01:42:47;3.73;;;2.43;;
8803;SDS011;4438;50.890;4.726;2022-07-17T01:45:14;3.23;;;2.40;;
8803;SDS011;4438;50.890;4.726;2022-07-17T01:47:41;3.07;;;2.20;;
8803;SDS011;4438;50.890;4.726;2022-07-17T01:50:09;2.50;;;2.30;;
8803;SDS011;4438;50.890;4.726;2022-07-17T01:52:36;2.43;;;2.23;;
8803;SDS011;4438;50.890;4.726;2022-07-17T01:55:03;3.30;;;2.37;;
8803;SDS011;4438;50.890;4.726;2022-07-17T01:57:30;3.30;;;2.30;;
8803;SDS011;4438;50.890;4.726;2022-07-17T01:59:56;2.83;;;2.57;;
8803;SDS011;4438;50.890;4.726;2022-07-17T02:02:22;2.50;;;2.20;;
8803;SDS011;4438;50.890;4.726;2022-07-17T02:04:48;2.73;;;2.37;;
8803;SDS011;4438;50.890;4.726;2022-07-17T02:07:14;3.53;;;2.30;;
8803;SDS011;4438;50.890;4.726;2022-07-17T02:09:40;3.10;;;2.53;;
8803;SDS011;4438;50.890;4.726;2022-07-17T02:12:06;3.50;;;2.30;;
8803;SDS011;4438;50.890;4.726;2022-07-17T02:14:32;2.87;;;2.50;;
8803;SDS011;4438;50.890;4.726;2022-07-17T02:16:59;3.37;;;2.53;;
8803;SDS011;4438;50.890;4.726;2022-07-17T02:19:25;2.43;;;2.23;;
8803;SDS011;4438;50.890;4.726;2022-07-17T02:21:51;3.47;;;2.60;;
8803;SDS011;4438;50.890;4.726;2022-07-17T02:24:18;3.73;;;2.50;;
8803;SDS011;4438;50.890;4.726;2022-07-17T02:26:44;3.40;;;2.23;;
8803;SDS011;4438;50.890;4.726;2022-07-17T02:29:10;3.37;;;2.60;;
8803;SDS011;4438;50.890;4.726;2022-07-17T02:31:36;3.53;;;2.53;;
8803;SDS011;4438;50.890;4.726;2022-07-17T02:34:03;4.40;;;2.60;;
8803;SDS011;4438;50.890;4.726;2022-07-17T02:36:29;3.37;;;2.03;;
8803;SDS011;4438;50.890;4.726;2022-07-17T02:38:55;3.90;;;2.30;;
8803;SDS011;4438;50.890;4.726;2022-07-17T02:41:22;3.43;;;2.37;;
8803;SDS011;4438;50.890;4.726;2022-07-17T02:43:48;2.07;;;1.97;;
8803;SDS011;4438;50.890;4.726;2022-07-17T02:46:14;3.67;;;2.47;;
8803;SDS011;4438;50.890;4.726;2022-07-17T02:48:41;2.43;;;2.23;;
8803;SDS011;4438;50.890;4.726;2022-07-17T02:51:07;3.27;;;2.20;;
8803;SDS011;4438;50.890;4.726;2022-07-17T02:53:33;4.57;;;2.43;;
8803;SDS011;4438;50.890;4.726;2022-07-17T02:55:59;3.50;;;2.17;;
8803;SDS011;4438;50.890;4.726;2022-07-17T02:58:26;4.10;;;2.33;;
8803;SDS011;4438;50.890;4.726;2022-07-17T03:00:52;3.03;;;2.23;;
8803;SDS011;4438;50.890;4.726;2022-07-17T03:03:18;4.30;;;2.63;;
8803;SDS011;4438;50.890;4.726;2022-07-17T03:05:46;2.90;;;2.47;;
8803;SDS011;4438;50.890;4.726;2022-07-17T03:08:12;3.67;;;2.40;;
8803;SDS011;4438;50.890;4.726;2022-07-17T03:10:38;2.77;;;2.13;;
8803;SDS011;4438;50.890;4.726;2022-07-17T03:13:05;2.30;;;2.10;;
8803;SDS011;4438;50.890;4.726;2022-07-17T03:15:31;3.33;;;2.50;;
8803;SDS011;4438;50.890;4.726;2022-07-17T03:17:57;2.70;;;2.40;;
8803;SDS011;4438;50.890;4.726;2022-07-17T03:20:23;3.13;;;2.37;;
8803;SDS011;4438;50.890;4.726;2022-07-17T03:22:50;3.23;;;2.23;;
8803;SDS011;4438;50.890;4.726;2022-07-17T03:25:16;2.50;;;2.30;;
8803;SDS011;4438;50.890;4.726;2022-07-17T03:27:42;2.83;;;2.40;;
8803;SDS011;4438;50.890;4.726;2022-07-17T03:30:08;2.57;;;2.37;;
8803;SDS011;4438;50.890;4.726;2022-07-17T03:32:35;2.53;;;2.33;;
8803;SDS011;4438;50.890;4.726;2022-07-17T03:35:01;2.90;;;2.30;;
8803;SDS011;4438;50.890;4.726;2022-07-17T03:37:28;3.10;;;2.43;;
8803;SDS011;4438;50.890;4.726;2022-07-17T03:39:54;2.80;;;2.50;;
8803;SDS011;4438;50.890;4.726;2022-07-17T03:42:20;3.50;;;2.50;;
8803;SDS011;4438;50.890;4.726;2022-07-17T03:44:46;4.63;;;3.00;;
8803;SDS011;4438;50.890;4.726;2022-07-17T03:47:12;2.50;;;2.30;;
8803;SDS011;4438;50.890;4.726;2022-07-17T03:49:38;2.70;;;2.30;;
8803;SDS011;4438;50.890;4.726;2022-07-17T03:52:05;2.93;;;2.53;;
8803;SDS011;4438;50.890;4.726;2022-07-17T03:54:31;2.77;;;2.50;;
8803;SDS011;4438;50.890;4.726;2022-07-17T03:56:57;3.10;;;2.73;;
8803;SDS011;4438;50.890;4.726;2022-07-17T03:59:24;3.10;;;2.80;;
8803;SDS011;4438;50.890;4.726;2022-07-17T04:01:50;3.40;;;2.90;;
8803;SDS011;4438;50.890;4.726;2022-07-17T04:04:16;3.67;;;2.60;;
8803;SDS011;4438;50.890;4.726;2022-07-17T04:06:42;3.27;;;2.70;;
8803;SDS011;4438;50.890;4.726;2022-07-17T04:09:08;3.03;;;2.57;;
8803;SDS011;4438;50.890;4.726;2022-07-17T04:11:34;2.93;;;2.57;;
8803;SDS011;4438;50.890;4.726;2022-07-17T04:14:00;2.97;;;2.77;;
8803;SDS011;4438;50.890;4.726;2022-07-17T04:16:26;4.27;;;3.20;;
8803;SDS011;4438;50.890;4.726;2022-07-17T04:18:52;3.23;;;2.63;;
8803;SDS011;4438;50.890;4.726;2022-07-17T04:21:18;3.80;;;2.90;;
8803;SDS011;4438;50.890;4.726;2022-07-17T04:23:44;3.13;;;2.73;;
8803;SDS011;4438;50.890;4.726;2022-07-17T04:26:11;5.13;;;2.83;;
8803;SDS011;4438;50.890;4.726;2022-07-17T04:28:37;3.00;;;2.70;;
8803;SDS011;4438;50.890;4.726;2022-07-17T04:31:04;3.67;;;2.93;;
8803;SDS011;4438;50.890;4.726;2022-07-17T04:33:30;3.77;;;2.90;;
8803;SDS011;4438;50.890;4.726;2022-07-17T04:35:56;3.50;;;3.00;;
8803;SDS011;4438;50.890;4.726;2022-07-17T04:38:22;3.63;;;3.10;;
8803;SDS011;4438;50.890;4.726;2022-07-17T04:40:48;3.10;;;2.80;;
8803;SDS011;4438;50.890;4.726;2022-07-17T04:43:15;3.10;;;2.80;;
8803;SDS011;4438;50.890;4.726;2022-07-17T04:45:41;3.20;;;2.87;;
8803;SDS011;4438;50.890;4.726;2022-07-17T04:48:07;3.73;;;3.33;;
8803;SDS011;4438;50.890;4.726;2022-07-17T04:50:33;3.97;;;3.10;;
8803;SDS011;4438;50.890;4.726;2022-07-17T04:52:59;3.77;;;3.10;;
8803;SDS011;4438;50.890;4.726;2022-07-17T04:55:26;3.60;;;3.30;;
8803;SDS011;4438;50.890;4.726;2022-07-17T04:57:52;4.33;;;3.40;;
8803;SDS011;4438;50.890;4.726;2022-07-17T05:00:19;3.33;;;3.03;;
8803;SDS011;4438;50.890;4.726;2022-07-17T05:02:45;3.83;;;3.40;;
8803;SDS011;4438;50.890;4.726;2022-07-17T05:05:11;4.67;;;3.80;;
8803;SDS011;4438;50.890;4.726;2022-07-17T05:07:38;3.93;;;3.50;;
8803;SDS011;4438;50.890;4.726;2022-07-17T05:10:04;4.50;;;3.60;;
8803;SDS011;4438;50.890;4.726;2022-07-17T05:12:31;4.23;;;3.60;;
8803;SDS011;4438;50.890;4.726;2022-07-17T05:14:57;4.13;;;3.27;;
8803;SDS011;4438;50.890;4.726;2022-07-17T05:17:23;4.00;;;3.60;;
8803;SDS011;4438;50.890;4.726;2022-07-17T05:19:49;5.17;;;4.17;;
8803;SDS011;4438;50.890;4.726;2022-07-17T05:22:16;5.00;;;3.27;;
8803;SDS011;4438;50.890;4.726;2022-07-17T05:24:42;5.13;;;3.90;;
8803;SDS011;4438;50.890;4.726;2022-07-17T05:27:08;6.23;;;3.53;;
8803;SDS011;4438;50.890;4.726;2022-07-17T05:29:34;4.70;;;3.70;;
8803;SDS011;4438;50.890;4.726;2022-07-17T05:32:01;4.30;;;3.63;;
8803;SDS011;4438;50.890;4.726;2022-07-17T05:34:28;4.10;;;3.43;;
8803;SDS011;4438;50.890;4.726;2022-07-17T05:36:54;5.07;;;3.70;;
8803;SDS011;4438;50.890;4.726;2022-07-17T05:39:20;4.37;;;3.50;;
8803;SDS011;4438;50.890;4.726;2022-07-17T05:41:46;3.83;;;3.50;;
8803;SDS011;4438;50.890;4.726;2022-07-17T05:44:12;6.23;;;3.47;;
8803;SDS011;4438;50.890;4.726;2022-07-17T05:46:38;4.83;;;3.70;;
8803;SDS011;4438;50.890;4.726;2022-07-17T05:49:04;3.70;;;3.40;;
8803;SDS011;4438;50.890;4.726;2022-07-17T05:51:30;4.20;;;3.40;;
8803;SDS011;4438;50.890;4.726;2022-07-17T05:53:56;5.67;;;3.10;;
8803;SDS011;4438;50.890;4.726;2022-07-17T05:56:23;5.37;;;3.70;;
8803;SDS011;4438;50.890;4.726;2022-07-17T05:58:49;3.20;;;2.90;;
8803;SDS011;4438;50.890;4.726;2022-07-17T06:01:15;3.70;;;3.10;;
8803;SDS011;4438;50.890;4.726;2022-07-17T06:03:41;4.30;;;3.23;;
8803;SDS011;4438;50.890;4.726;2022-07-17T06:06:07;5.07;;;3.10;;
8803;SDS011;4438;50.890;4.726;2022-07-17T06:08:33;3.07;;;2.77;;
8803;SDS011;4438;50.890;4.726;2022-07-17T06:10:59;4.90;;;3.10;;
8803;SDS011;4438;50.890;4.726;2022-07-17T06:13:26;4.33;;;3.17;;
8803;SDS011;4438;50.890;4.726;2022-07-17T06:15:52;3.70;;;2.97;;
8803;SDS011;4438;50.890;4.726;2022-07-17T06:18:18;3.07;;;2.77;;
8803;SDS011;4438;50.890;4.726;2022-07-17T06:20:44;3.07;;;2.67;;
8803;SDS011;4438;50.890;4.726;2022-07-17T06:23:10;3.23;;;2.30;;
8803;SDS011;4438;50.890;4.726;2022-07-17T06:25:36;5.13;;;3.03;;
8803;SDS011;4438;50.890;4.726;2022-07-17T06:28:03;5.13;;;2.90;;
8803;SDS011;4438;50.890;4.726;2022-07-17T06:30:29;4.37;;;3.07;;
8803;SDS011;4438;50.890;4.726;2022-07-17T06:32:55;6.37;;;2.80;;
8803;SDS011;4438;50.890;4.726;2022-07-17T06:35:21;4.20;;;3.00;;
8803;SDS011;4438;50.890;4.726;2022-07-17T06:37:47;2.90;;;2.47;;
8803;SDS011;4438;50.890;4.726;2022-07-17T06:40:13;5.63;;;2.80;;
8803;SDS011;4438;50.890;4.726;2022-07-17T06:42:39;4.60;;;2.50;;
8803;SDS011;4438;50.890;4.726;2022-07-17T06:45:06;4.43;;;2.87;;
8803;SDS011;4438;50.890;4.726;2022-07-17T06:47:32;6.20;;;2.67;;
8803;SDS011;4438;50.890;4.726;2022-07-17T06:49:58;3.80;;;2.87;;
8803;SDS011;4438;50.890;4.726;2022-07-17T06:52:24;4.87;;;2.70;;
8803;SDS011;4438;50.890;4.726;2022-07-17T06:54:50;3.90;;;2.50;;
8803;SDS011;4438;50.890;4.726;2022-07-17T06:57:16;3.20;;;2.20;;
8803;SDS011;4438;50.890;4.726;2022-07-17T06:59:42;4.00;;;2.80;;
8803;SDS011;4438;50.890;4.726;2022-07-17T07:02:08;5.27;;;2.70;;
8803;SDS011;4438;50.890;4.726;2022-07-17T07:04:35;5.57;;;2.47;;
8803;SDS011;4438;50.890;4.726;2022-07-17T07:07:01;4.47;;;2.60;;
8803;SDS011;4438;50.890;4.726;2022-07-17T07:09:27;7.23;;;2.80;;
8803;SDS011;4438;50.890;4.726;2022-07-17T07:11:53;4.20;;;2.80;;
8803;SDS011;4438;50.890;4.726;2022-07-17T07:14:19;4.10;;;2.57;;
8803;SDS011;4438;50.890;4.726;2022-07-17T07:16:46;3.33;;;2.40;;
8803;SDS011;4438;50.890;4.726;2022-07-17T07:19:12;4.17;;;2.27;;
8803;SDS011;4438;50.890;4.726;2022-07-17T07:21:39;4.67;;;2.70;;
8803;SDS011;4438;50.890;4.726;2022-07-17T07:24:05;5.07;;;2.50;;
8803;SDS011;4438;50.890;4.726;2022-07-17T07:26:31;4.17;;;2.40;;
8803;SDS011;4438;50.890;4.726;2022-07-17T07:28:57;4.40;;;2.40;;
8803;SDS011;4438;50.890;4.726;2022-07-17T07:31:23;4.30;;;2.50;;
8803;SDS011;4438;50.890;4.726;2022-07-17T07:33:49;4.57;;;2.60;;
8803;SDS011;4438;50.890;4.726;2022-07-17T07:36:15;4.00;;;2.73;;
8803;SDS011;4438;50.890;4.726;2022-07-17T07:38:41;5.23;;;2.60;;
8803;SDS011;4438;50.890;4.726;2022-07-17T07:41:08;4.43;;;2.43;;
8803;SDS011;4438;50.890;4.726;2022-07-17T07:43:34;4.40;;;2.57;;
8803;SDS011;4438;50.890;4.726;2022-07-17T07:46:00;3.93;;;2.30;;
8803;SDS011;4438;50.890;4.726;2022-07-17T07:48:26;3.13;;;2.30;;
8803;SDS011;4438;50.890;4.726;2022-07-17T07:50:53;4.00;;;2.37;;
8803;SDS011;4438;50.890;4.726;2022-07-17T07:53:19;5.57;;;2.83;;
8803;SDS011;4438;50.890;4.726;2022-07-17T07:55:45;5.47;;;2.90;;
8803;SDS011;4438;50.890;4.726;2022-07-17T07:58:12;3.83;;;2.97;;
8803;SDS011;4438;50.890;4.726;2022-07-17T08:00:39;6.40;;;3.10;;
8803;SDS011;4438;50.890;4.726;2022-07-17T08:03:05;7.23;;;3.33;;
8803;SDS011;4438;50.890;4.726;2022-07-17T08:05:32;4.40;;;2.60;;
8803;SDS011;4438;50.890;4.726;2022-07-17T08:07:58;4.40;;;2.77;;
8803;SDS011;4438;50.890;4.726;2022-07-17T08:10:25;5.30;;;2.60;;
8803;SDS011;4438;50.890;4.726;2022-07-17T08:12:51;4.87;;;2.60;;
8803;SDS011;4438;50.890;4.726;2022-07-17T08:15:18;3.00;;;2.50;;
8803;SDS011;4438;50.890;4.726;2022-07-17T08:17:45;3.10;;;2.27;;
8803;SDS011;4438;50.890;4.726;2022-07-17T08:20:12;3.07;;;2.33;;
8803;SDS011;4438;50.890;4.726;2022-07-17T08:22:39;5.10;;;2.50;;
8803;SDS011;4438;50.890;4.726;2022-07-17T08:25:05;6.20;;;2.50;;
8803;SDS011;4438;50.890;4.726;2022-07-17T08:27:38;3.10;;;2.77;;
8803;SDS011;4438;50.890;4.726;2022-07-17T08:30:05;6.70;;;2.60;;
8803;SDS011;4438;50.890;4.726;2022-07-17T08:32:31;4.10;;;2.33;;
8803;SDS011;4438;50.890;4.726;2022-07-17T08:34:57;4.87;;;2.03;;
8803;SDS011;4438;50.890;4.726;2022-07-17T08:37:23;7.13;;;3.00;;
8803;SDS011;4438;50.890;4.726;2022-07-17T08:39:50;4.80;;;2.60;;
8803;SDS011;4438;50.890;4.726;2022-07-17T08:42:16;5.80;;;2.20;;
8803;SDS011;4438;50.890;4.726;2022-07-17T08:44:42;7.10;;;2.70;;
8803;SDS011;4438;50.890;4.726;2022-07-17T08:47:10;5.23;;;2.50;;
8803;SDS011;4438;50.890;4.726;2022-07-17T08:49:36;4.67;;;2.30;;
8803;SDS011;4438;50.890;4.726;2022-07-17T08:52:05;3.97;;;2.30;;
8803;SDS011;4438;50.890;4.726;2022-07-17T08:54:32;3.67;;;2.30;;
8803;SDS011;4438;50.890;4.726;2022-07-17T08:56:58;3.63;;;2.10;;
8803;SDS011;4438;50.890;4.726;2022-07-17T08:59:24;4.60;;;2.17;;
8803;SDS011;4438;50.890;4.726;2022-07-17T09:01:50;4.70;;;2.23;;
8803;SDS011;4438;50.890;4.726;2022-07-17T09:04:16;3.97;;;2.20;;
8803;SDS011;4438;50.890;4.726;2022-07-17T09:06:42;3.73;;;2.27;;
8803;SDS011;4438;50.890;4.726;2022-07-17T09:09:10;3.70;;;2.00;;
8803;SDS011;4438;50.890;4.726;2022-07-17T09:11:43;3.87;;;2.20;;
8803;SDS011;4438;50.890;4.726;2022-07-17T09:14:10;2.33;;;2.10;;
8803;SDS011;4438;50.890;4.726;2022-07-17T09:16:46;4.10;;;2.40;;
8803;SDS011;4438;50.890;4.726;2022-07-17T09:19:12;5.83;;;2.50;;
8803;SDS011;4438;50.890;4.726;2022-07-17T09:21:50;4.27;;;2.30;;
8803;SDS011;4438;50.890;4.726;2022-07-17T09:24:16;3.23;;;2.50;;
8803;SDS011;4438;50.890;4.726;2022-07-17T09:26:45;5.37;;;2.53;;
8803;SDS011;4438;50.890;4.726;2022-07-17T09:29:11;4.37;;;2.40;;
8803;SDS011;4438;50.890;4.726;2022-07-17T09:31:38;5.07;;;2.67;;
8803;SDS011;4438;50.890;4.726;2022-07-17T09:34:04;3.80;;;2.50;;
8803;SDS011;4438;50.890;4.726;2022-07-17T09:36:30;4.10;;;2.60;;
8803;SDS011;4438;50.890;4.726;2022-07-17T09:38:57;3.50;;;2.37;;
8803;SDS011;4438;50.890;4.726;2022-07-17T09:41:24;3.33;;;1.97;;
8803;SDS011;4438;50.890;4.726;2022-07-17T09:43:52;6.40;;;2.47;;
8803;SDS011;4438;50.890;4.726;2022-07-17T09:46:22;4.20;;;2.03;;
8803;SDS011;4438;50.890;4.726;2022-07-17T09:48:53;3.90;;;2.07;;
8803;SDS011;4438;50.890;4.726;2022-07-17T09:51:21;6.57;;;2.60;;
8803;SDS011;4438;50.890;4.726;2022-07-17T09:53:48;6.33;;;2.40;;
8803;SDS011;4438;50.890;4.726;2022-07-17T09:56:15;5.17;;;2.40;;
8803;SDS011;4438;50.890;4.726;2022-07-17T09:58:47;5.03;;;2.37;;
8803;SDS011;4438;50.890;4.726;2022-07-17T10:01:14;3.20;;;2.53;;
8803;SDS011;4438;50.890;4.726;2022-07-17T10:03:42;3.70;;;2.03;;
8803;SDS011;4438;50.890;4.726;2022-07-17T10:06:11;3.67;;;2.37;;
8803;SDS011;4438;50.890;4.726;2022-07-17T10:08:38;3.07;;;2.10;;
8803;SDS011;4438;50.890;4.726;2022-07-17T10:11:05;4.00;;;2.20;;
8803;SDS011;4438;50.890;4.726;2022-07-17T10:13:31;11.53;;;2.83;;
8803;SDS011;4438;50.890;4.726;2022-07-17T10:15:58;2.37;;;1.90;;
8803;SDS011;4438;50.890;4.726;2022-07-17T10:18:40;2.40;;;2.17;;
8803;SDS011;4438;50.890;4.726;2022-07-17T10:21:10;4.83;;;2.10;;
8803;SDS011;4438;50.890;4.726;2022-07-17T10:23:36;3.73;;;2.37;;
8803;SDS011;4438;50.890;4.726;2022-07-17T10:26:03;3.47;;;1.80;;
8803;SDS011;4438;50.890;4.726;2022-07-17T10:28:39;3.73;;;2.00;;
8803;SDS011;4438;50.890;4.726;2022-07-17T10:31:05;4.83;;;2.40;;
8803;SDS011;4438;50.890;4.726;2022-07-17T10:33:32;2.93;;;1.97;;
8803;SDS011;4438;50.890;4.726;2022-07-17T10:35:58;3.80;;;2.30;;
8803;SDS011;4438;50.890;4.726;2022-07-17T10:38:24;3.37;;;2.10;;
8803;SDS011;4438;50.890;4.726;2022-07-17T10:41:02;3.20;;;2.07;;
8803;SDS011;4438;50.890;4.726;2022-07-17T10:43:42;2.57;;;2.07;;
8803;SDS011;4438;50.890;4.726;2022-07-17T10:46:09;2.50;;;1.90;;
8803;SDS011;4438;50.890;4.726;2022-07-17T10:48:35;3.70;;;2.50;;
8803;SDS011;4438;50.890;4.726;2022-07-17T10:51:01;3.10;;;2.33;;
8803;SDS011;4438;50.890;4.726;2022-07-17T10:53:28;3.53;;;1.97;;
8803;SDS011;4438;50.890;4.726;2022-07-17T10:55:56;3.17;;;2.13;;
8803;SDS011;4438;50.890;4.726;2022-07-17T10:58:23;2.73;;;2.20;;
8803;SDS011;4438;50.890;4.726;2022-07-17T11:03:45;5.33;;;2.50;;
8803;SDS011;4438;50.890;4.726;2022-07-17T11:08:44;6.50;;;2.37;;
8803;SDS011;4438;50.890;4.726;2022-07-17T11:11:11;3.60;;;2.10;;
8803;SDS011;4438;50.890;4.726;2022-07-17T11:13:37;5.40;;;2.53;;
8803;SDS011;4438;50.890;4.726;2022-07-17T11:16:03;5.10;;;2.57;;
8803;SDS011;4438;50.890;4.726;2022-07-17T11:18:30;4.13;;;2.00;;
8803;SDS011;4438;50.890;4.726;2022-07-17T11:20:57;5.40;;;2.10;;
8803;SDS011;4438;50.890;4.726;2022-07-17T11:23:25;3.00;;;2.10;;
8803;SDS011;4438;50.890;4.726;2022-07-17T11:28:30;3.50;;;2.10;;
8803;SDS011;4438;50.890;4.726;2022-07-17T11:30:56;2.67;;;2.13;;
8803;SDS011;4438;50.890;4.726;2022-07-17T11:33:23;3.53;;;2.13;;
8803;SDS011;4438;50.890;4.726;2022-07-17T11:35:49;4.20;;;2.13;;
8803;SDS011;4438;50.890;4.726;2022-07-17T11:38:15;3.63;;;2.10;;
8803;SDS011;4438;50.890;4.726;2022-07-17T11:40:47;4.23;;;2.23;;
8803;SDS011;4438;50.890;4.726;2022-07-17T11:43:14;5.60;;;2.20;;
8803;SDS011;4438;50.890;4.726;2022-07-17T11:45:44;2.13;;;1.90;;
8803;SDS011;4438;50.890;4.726;2022-07-17T11:48:10;4.43;;;2.20;;
8803;SDS011;4438;50.890;4.726;2022-07-17T11:50:36;3.93;;;2.40;;
8803;SDS011;4438;50.890;4.726;2022-07-17T11:53:04;3.53;;;2.00;;
8803;SDS011;4438;50.890;4.726;2022-07-17T11:55:37;4.10;;;2.33;;
8803;SDS011;4438;50.890;4.726;2022-07-17T11:58:03;6.27;;;2.70;;
8803;SDS011;4438;50.890;4.726;2022-07-17T12:00:29;3.70;;;2.30;;
8803;SDS011;4438;50.890;4.726;2022-07-17T12:03:02;2.30;;;1.90;;
8803;SDS011;4438;50.890;4.726;2022-07-17T12:05:29;3.30;;;2.10;;
8803;SDS011;4438;50.890;4.726;2022-07-17T12:07:56;6.15;;;2.00;;
8803;SDS011;4438;50.890;4.726;2022-07-17T12:10:22;3.20;;;2.08;;
8803;SDS011;4438;50.890;4.726;2022-07-17T12:15:18;3.90;;;1.95;;
8803;SDS011;4438;50.890;4.726;2022-07-17T12:17:45;3.50;;;2.28;;
8803;SDS011;4438;50.890;4.726;2022-07-17T12:20:11;2.57;;;2.00;;
8803;SDS011;4438;50.890;4.726;2022-07-17T12:22:43;3.60;;;3.28;;
8803;SDS011;4438;50.890;4.726;2022-07-17T12:25:20;2.78;;;2.22;;
8803;SDS011;4438;50.890;4.726;2022-07-17T12:27:46;2.65;;;2.13;;
8803;SDS011;4438;50.890;4.726;2022-07-17T12:30:12;4.28;;;2.00;;
8803;SDS011;4438;50.890;4.726;2022-07-17T12:32:42;2.78;;;2.10;;
8803;SDS011;4438;50.890;4.726;2022-07-17T12:35:08;2.20;;;1.88;;
8803;SDS011;4438;50.890;4.726;2022-07-17T12:37:34;2.17;;;1.92;;
8803;SDS011;4438;50.890;4.726;2022-07-17T12:40:00;3.95;;;2.10;;
8803;SDS011;4438;50.890;4.726;2022-07-17T12:42:27;4.00;;;2.00;;
8803;SDS011;4438;50.890;4.726;2022-07-17T12:44:53;4.70;;;2.20;;
8803;SDS011;4438;50.890;4.726;2022-07-17T12:47:19;2.95;;;2.20;;
8803;SDS011;4438;50.890;4.726;2022-07-17T12:49:45;5.32;;;2.35;;
8803;SDS011;4438;50.890;4.726;2022-07-17T12:52:11;2.65;;;2.25;;
8803;SDS011;4438;50.890;4.726;2022-07-17T12:54:39;3.78;;;2.22;;
8803;SDS011;4438;50.890;4.726;2022-07-17T12:57:05;2.30;;;2.10;;
8803;SDS011;4438;50.890;4.726;2022-07-17T12:59:32;2.30;;;2.00;;
8803;SDS011;4438;50.890;4.726;2022-07-17T13:01:59;4.07;;;2.00;;
8803;SDS011;4438;50.890;4.726;2022-07-17T13:04:25;2.50;;;2.30;;
8803;SDS011;4438;50.890;4.726;2022-07-17T13:06:52;5.30;;;2.40;;
8803;SDS011;4438;50.890;4.726;2022-07-17T13:09:18;3.00;;;2.17;;
8803;SDS011;4438;50.890;4.726;2022-07-17T13:11:44;3.45;;;2.20;;
8803;SDS011;4438;50.890;4.726;2022-07-17T13:14:10;2.33;;;1.90;;
8803;SDS011;4438;50.890;4.726;2022-07-17T13:16:37;2.22;;;1.90;;
8803;SDS011;4438;50.890;4.726;2022-07-17T13:19:04;2.13;;;1.83;;
8803;SDS011;4438;50.890;4.726;2022-07-17T13:21:30;2.25;;;2.05;;
8803;SDS011;4438;50.890;4.726;2022-07-17T13:23:56;1.80;;;1.60;;
8803;SDS011;4438;50.890;4.726;2022-07-17T13:26:22;4.15;;;2.20;;
8803;SDS011;4438;50.890;4.726;2022-07-17T13:28:48;8.43;;;2.72;;
8803;SDS011;4438;50.890;4.726;2022-07-17T13:31:14;6.40;;;2.35;;
8803;SDS011;4438;50.890;4.726;2022-07-17T13:33:41;5.40;;;2.50;;
8803;SDS011;4438;50.890;4.726;2022-07-17T13:36:07;3.50;;;2.10;;
8803;SDS011;4438;50.890;4.726;2022-07-17T13:38:33;3.95;;;2.17;;
8803;SDS011;4438;50.890;4.726;2022-07-17T13:41:00;2.67;;;2.42;;
8803;SDS011;4438;50.890;4.726;2022-07-17T13:43:26;22.88;;;4.07;;
8803;SDS011;4438;50.890;4.726;2022-07-17T13:45:52;11.48;;;3.20;;
8803;SDS011;4438;50.890;4.726;2022-07-17T13:48:18;7.50;;;2.60;;
8803;SDS011;4438;50.890;4.726;2022-07-17T13:50:44;5.40;;;2.53;;
8803;SDS011;4438;50.890;4.726;2022-07-17T13:53:11;5.63;;;2.25;;
8803;SDS011;4438;50.890;4.726;2022-07-17T13:55:37;2.30;;;2.10;;
8803;SDS011;4438;50.890;4.726;2022-07-17T13:58:04;2.30;;;2.10;;
8803;SDS011;4438;50.890;4.726;2022-07-17T14:00:30;2.95;;;2.10;;
8803;SDS011;4438;50.890;4.726;2022-07-17T14:02:56;3.42;;;2.10;;
8803;SDS011;4438;50.890;4.726;2022-07-17T14:05:22;2.17;;;1.90;;
8803;SDS011;4438;50.890;4.726;2022-07-17T14:07:49;2.78;;;1.90;;
8803;SDS011;4438;50.890;4.726;2022-07-17T14:10:15;2.95;;;2.05;;
8803;SDS011;4438;50.890;4.726;2022-07-17T14:12:41;3.03;;;2.30;;
8803;SDS011;4438;50.890;4.726;2022-07-17T14:15:07;2.65;;;2.25;;
8803;SDS011;4438;50.890;4.726;2022-07-17T14:17:35;2.28;;;1.95;;
8803;SDS011;4438;50.890;4.726;2022-07-17T14:20:01;2.20;;;2.00;;
8803;SDS011;4438;50.890;4.726;2022-07-17T14:22:28;2.15;;;1.90;;
8803;SDS011;4438;50.890;4.726;2022-07-17T14:24:54;2.17;;;1.98;;
8803;SDS011;4438;50.890;4.726;2022-07-17T14:27:20;2.33;;;1.77;;
8803;SDS011;4438;50.890;4.726;2022-07-17T14:29:47;3.00;;;2.10;;
8803;SDS011;4438;50.890;4.726;2022-07-17T14:32:14;4.40;;;2.30;;
8803;SDS011;4438;50.890;4.726;2022-07-17T14:34:40;1.83;;;1.73;;
8803;SDS011;4438;50.890;4.726;2022-07-17T14:37:06;2.35;;;2.15;;
8803;SDS011;4438;50.890;4.726;2022-07-17T14:39:33;2.83;;;2.10;;
8803;SDS011;4438;50.890;4.726;2022-07-17T14:42:00;4.03;;;1.90;;
8803;SDS011;4438;50.890;4.726;2022-07-17T14:44:26;3.35;;;2.10;;
8803;SDS011;4438;50.890;4.726;2022-07-17T14:46:52;2.00;;;1.90;;
8803;SDS011;4438;50.890;4.726;2022-07-17T14:49:19;2.47;;;1.92;;
8803;SDS011;4438;50.890;4.726;2022-07-17T14:51:45;2.10;;;1.90;;
8803;SDS011;4438;50.890;4.726;2022-07-17T14:54:11;2.38;;;2.17;;
8803;SDS011;4438;50.890;4.726;2022-07-17T14:56:37;3.53;;;2.22;;
8803;SDS011;4438;50.890;4.726;2022-07-17T14:59:03;1.70;;;1.60;;
8803;SDS011;4438;50.890;4.726;2022-07-17T15:01:29;2.28;;;1.90;;
8803;SDS011;4438;50.890;4.726;2022-07-17T15:03:55;2.00;;;1.83;;
8803;SDS011;4438;50.890;4.726;2022-07-17T15:06:21;3.00;;;1.98;;
8803;SDS011;4438;50.890;4.726;2022-07-17T15:08:47;3.30;;;2.10;;
8803;SDS011;4438;50.890;4.726;2022-07-17T15:11:14;3.40;;;1.92;;
8803;SDS011;4438;50.890;4.726;2022-07-17T15:13:40;2.72;;;1.67;;
8803;SDS011;4438;50.890;4.726;2022-07-17T15:16:06;7.78;;;2.00;;
8803;SDS011;4438;50.890;4.726;2022-07-17T15:18:32;2.00;;;1.80;;
8803;SDS011;4438;50.890;4.726;2022-07-17T15:20:58;1.88;;;1.70;;